Time;durP1;ratioP1;P1;durP2;ratioP2;P2;SDS_P1;SDS_P2;PMS_P1;PMS_P2;Temp;Humidity;BMP_temperature;BMP_pressure;BME280_temperature;BME280_humidity;BME280_pressure;Samples;Min_cycle;Max_cycle;Signal;HPM_P1;HPM_P2
2023/01/08 00:01:52;;;;;;;2.90;2.60;;;8.10;99.90;;;;;;5014950;28;20180;-78
2023/01/08 00:04:18;;;;;;;4.73;2.97;;;8.20;99.90;;;;;;5015140;28;20190;-79
2023/01/08 00:06:43;;;;;;;4.40;3.00;;;8.10;99.90;;;;;;5032651;28;20174;-79
2023/01/08 00:09:10;;;;;;;3.43;2.57;;;8.20;99.90;;;;;;5014918;28;20563;-80
2023/01/08 00:11:35;;;;;;;4.10;2.70;;;8.20;99.90;;;;;;5032966;28;20263;-78
2023/01/08 00:14:01;;;;;;;4.13;2.83;;;8.20;99.90;;;;;;5032783;28;20257;-78
2023/01/08 00:16:27;;;;;;;3.20;2.57;;;8.30;99.90;;;;;;5032241;28;20242;-79
2023/01/08 00:18:52;;;;;;;3.80;2.63;;;8.30;99.90;;;;;;5032932;28;20185;-79
2023/01/08 00:21:19;;;;;;;5.63;2.53;;;8.40;99.90;;;;;;5033497;28;20180;-79
2023/01/08 00:23:45;;;;;;;3.67;2.80;;;8.40;99.90;;;;;;5033607;28;20265;-79
2023/01/08 00:26:10;;;;;;;3.63;2.77;;;8.50;99.90;;;;;;5033464;28;20265;-78
2023/01/08 00:28:37;;;;;;;2.97;2.67;;;8.50;99.90;;;;;;5032780;28;20250;-78
2023/01/08 00:31:08;;;;;;;3.30;2.80;;;8.60;99.90;;;;;;5032346;28;20181;-79
2023/01/08 00:33:35;;;;;;;3.30;2.73;;;8.50;99.90;;;;;;5032720;28;20241;-78
2023/01/08 00:36:07;;;;;;;3.07;2.77;;;8.50;99.90;;;;;;5032584;28;20193;-78
2023/01/08 00:38:33;;;;;;;2.90;2.53;;;8.40;99.90;;;;;;5032284;28;20181;-79
2023/01/08 00:40:58;;;;;;;3.40;2.70;;;8.40;99.90;;;;;;5032124;28;20262;-78
2023/01/08 00:43:24;;;;;;;3.43;2.63;;;8.30;99.90;;;;;;5015021;28;20200;-79
2023/01/08 00:45:52;;;;;;;3.83;2.63;;;8.30;99.90;;;;;;5032570;28;20198;-79
2023/01/08 00:48:18;;;;;;;3.70;2.53;;;8.30;99.90;;;;;;5014607;28;20207;-79
2023/01/08 00:50:44;;;;;;;3.40;2.63;;;8.30;99.90;;;;;;5014400;28;20201;-79
2023/01/08 00:53:09;;;;;;;3.87;2.77;;;8.30;99.90;;;;;;5014413;28;20170;-78
2023/01/08 00:55:35;;;;;;;3.17;2.83;;;8.30;99.90;;;;;;5014866;28;20179;-78
2023/01/08 00:58:00;;;;;;;3.03;2.73;;;8.30;99.90;;;;;;5014199;28;20179;-79
2023/01/08 01:00:27;;;;;;;3.33;2.90;;;8.20;99.90;;;;;;5055250;22;20755;-84
2023/01/08 01:02:52;;;;;;;4.07;2.80;;;8.20;99.90;;;;;;5031742;28;20671;-85
2023/01/08 01:05:18;;;;;;;3.30;2.90;;;8.10;99.90;;;;;;5031503;28;20175;-84
2023/01/08 01:07:45;;;;;;;3.53;3.07;;;8.00;99.90;;;;;;5014264;28;20638;-83
2023/01/08 01:10:13;;;;;;;4.30;3.10;;;8.00;99.90;;;;;;5021330;28;20225;-84
2023/01/08 01:12:39;;;;;;;4.00;2.90;;;8.00;99.90;;;;;;5012078;28;20185;-84
2023/01/08 01:15:07;;;;;;;3.27;2.97;;;7.90;99.90;;;;;;5012074;28;20638;-84
2023/01/08 01:17:34;;;;;;;4.60;3.20;;;7.80;99.90;;;;;;5012028;28;20167;-84
2023/01/08 01:20:00;;;;;;;3.60;3.13;;;7.80;99.90;;;;;;5011573;28;20195;-84
2023/01/08 01:22:25;;;;;;;4.50;3.23;;;7.70;99.90;;;;;;4994406;28;20269;-84
2023/01/08 01:24:51;;;;;;;4.20;3.50;;;7.60;99.90;;;;;;4994679;28;20186;-84
2023/01/08 01:27:16;;;;;;;4.73;3.33;;;7.70;99.90;;;;;;5013559;28;20175;-84
2023/01/08 01:29:42;;;;;;;4.47;3.53;;;7.70;99.90;;;;;;4997580;28;20215;-84
2023/01/08 01:32:08;;;;;;;4.50;3.50;;;7.70;99.90;;;;;;5015056;28;20171;-84
2023/01/08 01:34:34;;;;;;;3.90;3.13;;;7.80;99.90;;;;;;4997634;28;20205;-84
2023/01/08 01:36:59;;;;;;;3.57;3.07;;;7.80;99.90;;;;;;4997642;28;20167;-85
2023/01/08 01:39:25;;;;;;;3.20;2.90;;;7.80;99.90;;;;;;4997547;28;20297;-84
2023/01/08 01:41:52;;;;;;;4.30;3.47;;;7.80;99.90;;;;;;5014968;28;20178;-84
2023/01/08 01:44:38;;;;;;;4.00;3.07;;;7.80;99.90;;;;;;5015439;28;20171;-84
2023/01/08 01:47:26;;;;;;;3.50;3.00;;;7.80;99.90;;;;;;5014910;28;20170;-86
2023/01/08 01:50:01;;;;;;;4.77;3.33;;;7.80;99.90;;;;;;5014943;28;20216;-84
2023/01/08 01:52:31;;;;;;;4.90;3.60;;;7.90;99.90;;;;;;4997577;28;20622;-84
2023/01/08 01:55:00;;;;;;;5.00;3.30;;;7.90;99.90;;;;;;5014798;28;20241;-85
2023/01/08 01:57:26;;;;;;;5.80;3.47;;;7.90;99.90;;;;;;4997239;28;20558;-84
2023/01/08 01:59:53;;;;;;;4.03;3.47;;;7.90;99.90;;;;;;4996626;28;20348;-84
2023/01/08 02:02:18;;;;;;;3.90;3.33;;;7.90;99.90;;;;;;5014786;28;20197;-85
2023/01/08 02:04:44;;;;;;;4.33;3.80;;;7.90;99.90;;;;;;5015052;28;20179;-84
2023/01/08 02:07:20;;;;;;;4.50;3.40;;;7.90;99.90;;;;;;4997354;28;20187;-84
2023/01/08 02:10:15;;;;;;;4.13;3.57;;;7.90;99.90;;;;;;5014477;28;20245;-84
2023/01/08 02:12:45;;;;;;;4.53;3.90;;;7.90;99.90;;;;;;5014889;28;20179;-85
2023/01/08 02:15:13;;;;;;;4.93;3.40;;;7.90;99.90;;;;;;4997224;28;20179;-84
2023/01/08 02:17:49;;;;;;;3.77;3.33;;;7.90;99.90;;;;;;4997115;28;20179;-85
2023/01/08 02:20:21;;;;;;;4.53;3.80;;;8.00;99.90;;;;;;5014175;28;20574;-85
2023/01/08 02:23:15;;;;;;;3.70;3.27;;;8.00;99.90;;;;;;4997246;28;20178;-85
2023/01/08 02:25:53;;;;;;;3.70;3.27;;;8.10;99.90;;;;;;4996846;28;20607;-84
2023/01/08 02:28:19;;;;;;;3.93;3.40;;;8.10;99.90;;;;;;4996811;28;20203;-84
2023/01/08 02:30:45;;;;;;;5.80;3.47;;;8.20;99.90;;;;;;4996311;28;20202;-84
2023/01/08 02:33:11;;;;;;;4.33;3.37;;;8.20;99.90;;;;;;4996846;28;20632;-84
2023/01/08 02:35:44;;;;;;;3.87;3.00;;;8.10;99.90;;;;;;4996965;28;20171;-84
2023/01/08 02:38:13;;;;;;;4.03;3.30;;;8.10;99.90;;;;;;4996001;28;20179;-86
2023/01/08 02:40:55;;;;;;;3.10;2.80;;;8.20;99.90;;;;;;4996215;28;20199;-84
2023/01/08 02:43:32;;;;;;;3.67;3.00;;;8.20;99.90;;;;;;5013964;28;20176;-84
2023/01/08 02:46:00;;;;;;;4.00;3.27;;;8.20;99.90;;;;;;5013979;28;20258;-84
2023/01/08 02:48:38;;;;;;;3.93;3.07;;;8.20;99.90;;;;;;5014147;28;20199;-84
2023/01/08 02:51:23;;;;;;;3.50;3.03;;;8.20;99.90;;;;;;4996204;28;20244;-84
2023/01/08 02:53:53;;;;;;;3.93;3.53;;;8.20;99.90;;;;;;5014258;28;20665;-84
2023/01/08 02:56:27;;;;;;;3.57;3.10;;;8.20;99.90;;;;;;5014003;28;20633;-84
2023/01/08 02:58:53;;;;;;;5.17;3.33;;;8.30;99.90;;;;;;4996289;28;20170;-85
2023/01/08 03:01:21;;;;;;;3.87;3.17;;;8.30;99.90;;;;;;5013369;28;20335;-84
2023/01/08 03:03:51;;;;;;;3.63;3.13;;;8.20;99.90;;;;;;4980211;28;20187;-85
2023/01/08 03:06:18;;;;;;;6.40;4.07;;;8.30;99.90;;;;;;4996015;28;20179;-85
2023/01/08 03:08:47;;;;;;;4.70;3.17;;;8.30;99.90;;;;;;4995924;28;20199;-85
2023/01/08 03:11:18;;;;;;;4.50;3.13;;;8.30;99.90;;;;;;5013338;28;20652;-84
2023/01/08 03:13:56;;;;;;;4.63;3.53;;;8.30;99.90;;;;;;4984027;28;20207;-84
2023/01/08 03:16:36;;;;;;;3.80;3.27;;;8.20;99.90;;;;;;4978436;28;20182;-86
2023/01/08 03:19:06;;;;;;;4.37;3.30;;;8.20;99.90;;;;;;5006343;28;20167;-84
2023/01/08 03:21:34;;;;;;;4.67;3.17;;;8.30;99.90;;;;;;4987367;28;20168;-85
2023/01/08 03:24:02;;;;;;;4.17;3.07;;;8.30;99.90;;;;;;4995617;28;20171;-84
2023/01/08 03:26:30;;;;;;;4.90;3.00;;;8.20;99.90;;;;;;5013311;28;20171;-85
2023/01/08 03:28:56;;;;;;;5.07;3.40;;;8.20;99.90;;;;;;4995503;28;20258;-83
2023/01/08 03:31:25;;;;;;;3.87;3.43;;;8.30;99.90;;;;;;5013064;28;20176;-86
2023/01/08 03:33:52;;;;;;;5.53;3.20;;;8.20;99.90;;;;;;5013404;28;20267;-84
2023/01/08 03:36:23;;;;;;;3.60;3.20;;;8.20;99.90;;;;;;5013218;28;20539;-85
2023/01/08 03:39:29;;;;;;;4.40;3.20;;;8.30;99.90;;;;;;4987598;28;20225;-85
2023/01/08 03:41:59;;;;;;;3.87;2.97;;;8.20;99.90;;;;;;4976020;28;20179;-84
2023/01/08 03:44:25;;;;;;;4.80;3.10;;;8.20;99.90;;;;;;4975853;28;20187;-84
2023/01/08 03:46:54;;;;;;;3.93;2.90;;;8.30;99.90;;;;;;4976216;28;20184;-84
2023/01/08 03:49:22;;;;;;;4.07;3.20;;;8.20;99.90;;;;;;4984957;28;20210;-84
2023/01/08 03:51:47;;;;;;;3.93;3.10;;;8.20;99.90;;;;;;4981875;28;20174;-84
2023/01/08 03:54:16;;;;;;;3.77;3.10;;;8.20;99.90;;;;;;4975661;28;20177;-86
2023/01/08 03:56:42;;;;;;;3.63;2.97;;;8.20;99.90;;;;;;4976095;28;20204;-85
2023/01/08 03:59:09;;;;;;;3.50;3.20;;;8.20;99.90;;;;;;4975472;28;20216;-84
2023/01/08 04:01:34;;;;;;;4.00;3.30;;;8.20;99.90;;;;;;4975893;28;20179;-84
2023/01/08 04:04:00;;;;;;;4.03;3.40;;;8.20;99.90;;;;;;4975558;28;20237;-85
2023/01/08 04:06:25;;;;;;;4.80;3.93;;;8.10;99.90;;;;;;4975672;28;20279;-85
2023/01/08 04:08:51;;;;;;;4.97;3.70;;;8.10;99.90;;;;;;4993053;28;20246;-84
2023/01/08 04:11:16;;;;;;;5.20;3.70;;;8.00;99.90;;;;;;4992828;28;20206;-84
2023/01/08 04:13:42;;;;;;;6.13;4.10;;;8.00;99.90;;;;;;4975696;28;20176;-84
2023/01/08 04:16:08;;;;;;;5.03;4.13;;;8.00;99.90;;;;;;4993084;28;20264;-86
2023/01/08 04:18:33;;;;;;;4.77;4.07;;;8.00;99.90;;;;;;4993368;28;20183;-84
2023/01/08 04:20:59;;;;;;;4.47;3.67;;;7.90;99.90;;;;;;4992637;28;20207;-84
2023/01/08 04:23:25;;;;;;;4.73;4.03;;;7.90;99.90;;;;;;4975371;28;20263;-85
2023/01/08 04:25:51;;;;;;;6.50;4.00;;;7.90;99.90;;;;;;4992852;28;20198;-84
2023/01/08 04:28:17;;;;;;;5.33;4.43;;;7.80;99.90;;;;;;4975346;28;20216;-85
2023/01/08 04:30:43;;;;;;;5.67;4.30;;;7.80;99.90;;;;;;4992622;28;20202;-85
2023/01/08 04:33:08;;;;;;;4.73;4.20;;;7.80;99.90;;;;;;4975571;28;20546;-85
2023/01/08 04:35:34;;;;;;;5.47;4.20;;;7.70;99.90;;;;;;4975431;28;20221;-84
2023/01/08 04:37:59;;;;;;;4.73;4.17;;;7.70;99.90;;;;;;4974731;28;20226;-82
2023/01/08 04:40:25;;;;;;;5.53;4.57;;;7.70;99.90;;;;;;5003812;28;20266;-84
2023/01/08 04:42:51;;;;;;;6.47;4.90;;;7.60;99.90;;;;;;4994719;28;20181;-85
2023/01/08 04:45:17;;;;;;;5.43;4.80;;;7.60;99.90;;;;;;4994934;28;20618;-84
2023/01/08 04:47:43;;;;;;;6.23;4.60;;;7.60;99.90;;;;;;5012460;28;20173;-84
2023/01/08 04:50:08;;;;;;;5.03;4.53;;;7.60;99.90;;;;;;4978516;28;20257;-84
2023/01/08 04:52:35;;;;;;;5.90;4.83;;;7.50;99.90;;;;;;4994623;28;20182;-85
2023/01/08 04:55:01;;;;;;;6.47;4.63;;;7.50;99.90;;;;;;4994851;28;20182;-85
2023/01/08 04:57:26;;;;;;;8.00;4.90;;;7.50;99.90;;;;;;4994662;28;20277;-84
2023/01/08 04:59:52;;;;;;;5.90;4.87;;;7.40;99.90;;;;;;5006154;28;20233;-85
2023/01/08 05:02:18;;;;;;;5.83;5.13;;;7.40;99.90;;;;;;5011144;28;20190;-85
2023/01/08 05:04:43;;;;;;;6.20;5.20;;;7.40;99.90;;;;;;4993673;28;20183;-85
2023/01/08 05:07:09;;;;;;;5.80;4.67;;;7.40;99.90;;;;;;5012486;28;20182;-85
2023/01/08 05:09:34;;;;;;;7.40;4.80;;;7.30;99.90;;;;;;4998208;28;20630;-84
2023/01/08 05:12:00;;;;;;;5.53;4.57;;;7.40;99.90;;;;;;5016044;28;20185;-86
2023/01/08 05:14:26;;;;;;;5.10;4.50;;;7.30;99.90;;;;;;4998321;28;20171;-84
2023/01/08 05:16:51;;;;;;;5.90;4.40;;;7.30;99.90;;;;;;4998290;28;20171;-85
2023/01/08 05:19:17;;;;;;;5.83;4.43;;;7.30;99.90;;;;;;4997877;28;20202;-84
2023/01/08 05:21:42;;;;;;;5.03;4.27;;;7.30;99.90;;;;;;4997844;28;20221;-84
2023/01/08 05:24:08;;;;;;;5.17;4.33;;;7.30;99.90;;;;;;5015525;28;20838;-85
2023/01/08 05:26:34;;;;;;;5.37;4.40;;;7.30;99.90;;;;;;5015566;28;20185;-84
2023/01/08 05:29:00;;;;;;;5.23;4.30;;;7.30;99.90;;;;;;5015466;28;20213;-84
2023/01/08 05:31:25;;;;;;;5.03;4.20;;;7.30;99.90;;;;;;4997698;28;20186;-84
2023/01/08 05:33:51;;;;;;;6.10;4.70;;;7.30;99.90;;;;;;4997907;28;20229;-85
2023/01/08 05:36:17;;;;;;;5.43;4.63;;;7.30;99.90;;;;;;5015183;28;20564;-84
2023/01/08 05:38:42;;;;;;;5.47;4.60;;;7.30;99.90;;;;;;4997760;28;20183;-84
2023/01/08 05:41:09;;;;;;;6.13;5.17;;;7.20;99.90;;;;;;4997703;28;20226;-84
2023/01/08 05:43:35;;;;;;;5.70;4.90;;;7.20;99.90;;;;;;4997516;28;20277;-85
2023/01/08 05:46:02;;;;;;;5.37;4.73;;;7.20;99.90;;;;;;4997631;28;20558;-84
2023/01/08 05:48:30;;;;;;;5.77;5.00;;;7.20;99.90;;;;;;4997578;28;20205;-85
2023/01/08 05:50:56;;;;;;;6.60;5.00;;;7.20;99.90;;;;;;4997186;28;20335;-85
2023/01/08 05:53:21;;;;;;;6.27;5.07;;;7.20;99.90;;;;;;4989504;28;20273;-84
2023/01/08 05:55:47;;;;;;;6.47;4.40;;;7.20;99.90;;;;;;4984494;28;20183;-84
2023/01/08 05:58:13;;;;;;;5.20;4.27;;;7.20;99.90;;;;;;4978009;28;20280;-85
2023/01/08 06:00:39;;;;;;;5.50;4.30;;;7.30;99.90;;;;;;4977522;28;20701;-85
2023/01/08 06:03:04;;;;;;;4.80;3.57;;;7.30;99.90;;;;;;4977901;28;20701;-85
2023/01/08 06:05:31;;;;;;;4.17;3.77;;;7.40;99.90;;;;;;4977824;28;20191;-84
2023/01/08 06:07:57;;;;;;;4.37;3.90;;;7.40;99.90;;;;;;4977900;28;20182;-84
2023/01/08 06:10:23;;;;;;;4.17;3.70;;;7.40;99.90;;;;;;4977688;28;20273;-85
2023/01/08 06:12:49;;;;;;;5.17;4.67;;;7.40;99.90;;;;;;4994772;28;20230;-84
2023/01/08 06:15:14;;;;;;;6.13;4.13;;;7.40;99.90;;;;;;4976899;28;20183;-85
2023/01/08 06:17:41;;;;;;;4.77;3.97;;;7.40;99.90;;;;;;4977538;28;20179;-85
2023/01/08 06:20:07;;;;;;;5.80;4.30;;;7.40;99.90;;;;;;4977192;28;20253;-84
2023/01/08 06:22:33;;;;;;;5.93;4.50;;;7.40;99.90;;;;;;4977521;28;20210;-85
2023/01/08 06:24:59;;;;;;;4.93;4.17;;;7.40;99.90;;;;;;4994763;28;20262;-86
2023/01/08 06:27:24;;;;;;;6.27;4.70;;;7.40;99.90;;;;;;4994874;28;20628;-85
2023/01/08 06:29:50;;;;;;;5.70;4.37;;;7.40;99.90;;;;;;4994506;28;20689;-85
2023/01/08 06:32:16;;;;;;;5.10;4.30;;;7.40;99.90;;;;;;4977344;28;20189;-85
2023/01/08 06:34:41;;;;;;;4.67;4.13;;;7.40;99.90;;;;;;4977054;28;20193;-85
2023/01/08 06:37:07;;;;;;;5.00;4.30;;;7.30;99.90;;;;;;4977366;28;20179;-85
2023/01/08 06:39:32;;;;;;;5.77;4.77;;;7.40;99.90;;;;;;4977320;28;20203;-85
2023/01/08 06:41:58;;;;;;;6.33;4.97;;;7.40;99.90;;;;;;4977260;28;20241;-85
2023/01/08 06:44:24;;;;;;;5.57;4.80;;;7.30;99.90;;;;;;4977180;28;20186;-85
2023/01/08 06:46:50;;;;;;;5.80;4.53;;;7.30;99.90;;;;;;5010529;28;20185;-85
2023/01/08 06:49:16;;;;;;;6.70;4.37;;;7.30;99.90;;;;;;5012192;28;20301;-84
2023/01/08 06:51:42;;;;;;;6.63;4.50;;;7.40;99.90;;;;;;4989652;28;20190;-83
2023/01/08 06:54:08;;;;;;;5.00;4.37;;;7.40;99.90;;;;;;5014044;28;20179;-84
2023/01/08 06:56:34;;;;;;;3.87;3.47;;;7.40;99.90;;;;;;4996214;28;20219;-84
2023/01/08 06:58:59;;;;;;;5.33;4.43;;;7.40;99.90;;;;;;4996126;28;20190;-85
2023/01/08 07:01:25;;;;;;;5.67;4.37;;;7.40;99.90;;;;;;5052378;22;20713;-76
2023/01/08 07:03:50;;;;;;;4.63;4.17;;;7.30;99.90;;;;;;5033469;28;20185;-77
2023/01/08 07:06:21;;;;;;;5.17;4.67;;;7.30;99.90;;;;;;5033443;28;20232;-77
2023/01/08 07:08:47;;;;;;;5.70;4.40;;;7.30;99.90;;;;;;5033302;28;20210;-77
2023/01/08 07:11:13;;;;;;;6.07;4.80;;;7.30;99.90;;;;;;5000517;28;20195;-75
2023/01/08 07:13:38;;;;;;;5.07;4.33;;;7.20;99.90;;;;;;4995691;28;20561;-75
2023/01/08 07:16:06;;;;;;;5.70;4.60;;;7.20;99.90;;;;;;5013262;28;20735;-75
2023/01/08 07:18:32;;;;;;;4.83;4.13;;;7.20;99.90;;;;;;5013090;28;20565;-75
2023/01/08 07:20:57;;;;;;;5.93;4.20;;;7.20;99.90;;;;;;4995777;28;20684;-77
2023/01/08 07:23:23;;;;;;;4.03;3.63;;;7.20;99.90;;;;;;4995742;28;20174;-76
2023/01/08 07:25:48;;;;;;;5.40;4.30;;;7.20;99.90;;;;;;5012773;28;20185;-76
2023/01/08 07:28:14;;;;;;;4.63;4.00;;;7.20;99.90;;;;;;4987013;28;20192;-76
2023/01/08 07:30:40;;;;;;;5.27;3.70;;;7.20;99.90;;;;;;5000670;28;20195;-77
2023/01/08 07:33:05;;;;;;;3.83;3.43;;;7.20;99.90;;;;;;4975972;28;20661;-75
2023/01/08 07:35:31;;;;;;;5.93;3.57;;;7.10;99.90;;;;;;4993511;28;20641;-76
2023/01/08 07:37:56;;;;;;;3.60;3.30;;;7.10;99.90;;;;;;4975907;28;20175;-77
2023/01/08 07:40:22;;;;;;;4.90;3.57;;;7.20;99.90;;;;;;4993092;28;20208;-78
2023/01/08 07:42:56;;;;;;;4.27;3.57;;;7.10;99.90;;;;;;4975821;28;20535;-76
2023/01/08 07:45:21;;;;;;;4.37;3.40;;;7.10;99.90;;;;;;4975789;28;20207;-78
2023/01/08 07:47:47;;;;;;;4.70;3.47;;;7.10;99.90;;;;;;4975570;28;20206;-76
2023/01/08 07:50:12;;;;;;;4.20;3.33;;;7.10;99.90;;;;;;4992903;28;20245;-77
2023/01/08 07:52:38;;;;;;;3.90;2.90;;;7.10;99.90;;;;;;4975800;28;20188;-74
2023/01/08 07:55:04;;;;;;;3.33;2.80;;;7.20;99.90;;;;;;4993239;28;20178;-75
2023/01/08 07:57:29;;;;;;;3.10;2.73;;;7.20;99.90;;;;;;4975584;28;20193;-76
2023/01/08 07:59:55;;;;;;;4.37;3.40;;;7.20;99.90;;;;;;4975291;28;20246;-76
2023/01/08 08:02:20;;;;;;;3.40;2.83;;;7.20;99.90;;;;;;4975604;28;20668;-76
2023/01/08 08:04:46;;;;;;;2.90;2.60;;;7.20;99.90;;;;;;4993234;28;20657;-75
2023/01/08 08:07:11;;;;;;;3.80;3.07;;;7.20;99.90;;;;;;4993142;28;20553;-75
2023/01/08 08:09:37;;;;;;;3.63;3.10;;;7.20;99.90;;;;;;4975017;28;20987;-73
2023/01/08 08:12:03;;;;;;;3.13;2.83;;;7.10;99.90;;;;;;4993293;28;20647;-75
2023/01/08 08:14:28;;;;;;;3.80;3.10;;;7.10;99.90;;;;;;4975392;28;20708;-76
2023/01/08 08:16:54;;;;;;;4.37;2.80;;;7.10;99.90;;;;;;4975408;28;20589;-76
2023/01/08 08:19:19;;;;;;;3.00;2.70;;;7.10;99.90;;;;;;4992727;28;20248;-77
2023/01/08 08:21:45;;;;;;;4.70;2.90;;;7.10;99.90;;;;;;4992597;28;20213;-75
2023/01/08 08:24:11;;;;;;;3.83;3.20;;;7.10;99.90;;;;;;4975320;28;20189;-76
2023/01/08 08:26:36;;;;;;;3.10;2.80;;;7.10;99.90;;;;;;4975293;28;20270;-75
2023/01/08 08:29:02;;;;;;;4.27;3.17;;;7.10;99.90;;;;;;4992567;28;20639;-76
2023/01/08 08:31:27;;;;;;;3.30;2.90;;;7.20;99.90;;;;;;4992415;28;20196;-75
2023/01/08 08:33:53;;;;;;;4.80;2.83;;;7.20;99.90;;;;;;4992980;28;20175;-75
2023/01/08 08:36:18;;;;;;;3.13;2.70;;;7.20;99.90;;;;;;4975466;28;20577;-76
2023/01/08 08:38:44;;;;;;;2.80;2.37;;;7.20;99.90;;;;;;4979166;28;20179;-76
2023/01/08 08:41:09;;;;;;;3.17;2.73;;;7.20;99.90;;;;;;4978916;28;20194;-75
2023/01/08 08:43:35;;;;;;;3.03;2.50;;;7.20;99.90;;;;;;4979013;28;20657;-76
2023/01/08 08:46:01;;;;;;;3.47;2.57;;;7.20;99.90;;;;;;4978962;28;20178;-77
2023/01/08 08:48:26;;;;;;;4.93;2.73;;;7.20;99.90;;;;;;4979129;28;20194;-76
2023/01/08 08:50:52;;;;;;;3.87;2.70;;;7.20;99.90;;;;;;4978649;28;20199;-75
2023/01/08 08:53:17;;;;;;;3.60;2.73;;;7.20;99.90;;;;;;4996185;28;20174;-76
2023/01/08 08:55:43;;;;;;;2.87;2.57;;;7.20;99.90;;;;;;4978813;28;20183;-76
2023/01/08 08:58:11;;;;;;;3.93;2.80;;;7.20;99.90;;;;;;4985890;28;20183;-76
2023/01/08 09:00:38;;;;;;;4.23;2.77;;;7.20;99.90;;;;;;4989805;28;20206;-76
2023/01/08 09:03:03;;;;;;;3.73;2.50;;;7.30;99.90;;;;;;4998376;28;20266;-76
2023/01/08 09:05:29;;;;;;;3.43;2.73;;;7.30;99.90;;;;;;5015783;28;20282;-76
2023/01/08 09:07:55;;;;;;;3.17;2.40;;;7.30;99.90;;;;;;4997945;28;20265;-76
2023/01/08 09:10:22;;;;;;;2.97;2.57;;;7.30;99.90;;;;;;4997800;28;20207;-76
2023/01/08 09:12:47;;;;;;;2.97;2.30;;;7.30;99.90;;;;;;4998034;28;20534;-76
2023/01/08 09:15:13;;;;;;;2.43;2.23;;;7.30;99.90;;;;;;5015410;28;20257;-76
2023/01/08 09:17:38;;;;;;;2.57;2.30;;;7.30;99.90;;;;;;5015338;28;20758;-74
2023/01/08 09:20:05;;;;;;;2.40;2.20;;;7.30;99.90;;;;;;4997776;28;20191;-77
2023/01/08 09:22:30;;;;;;;2.57;2.20;;;7.30;99.90;;;;;;4997928;28;20178;-76
2023/01/08 09:24:56;;;;;;;2.63;2.43;;;7.30;99.90;;;;;;4996678;28;20182;-76
2023/01/08 09:27:21;;;;;;;3.00;2.37;;;7.40;99.90;;;;;;4982011;28;20191;-76
2023/01/08 09:29:47;;;;;;;2.50;2.30;;;7.40;99.90;;;;;;4996970;28;20217;-76
2023/01/08 09:32:12;;;;;;;2.40;2.17;;;7.40;99.90;;;;;;5006760;28;20182;-76
2023/01/08 09:34:38;;;;;;;2.60;2.30;;;7.40;99.90;;;;;;4997773;28;20255;-76
2023/01/08 09:37:04;;;;;;;2.60;2.40;;;7.40;99.90;;;;;;4997619;28;20276;-76
2023/01/08 09:39:30;;;;;;;2.70;2.40;;;7.40;99.90;;;;;;4997456;28;20572;-76
2023/01/08 09:41:59;;;;;;;3.07;2.10;;;7.40;99.90;;;;;;5014775;28;20189;-76
2023/01/08 09:44:34;;;;;;;2.23;2.00;;;7.40;99.90;;;;;;5015336;28;20186;-78
2023/01/08 09:47:00;;;;;;;2.00;1.80;;;7.40;99.90;;;;;;5014957;28;20185;-75
2023/01/08 09:49:37;;;;;;;2.73;2.40;;;7.40;99.90;;;;;;5014150;28;20206;-76
2023/01/08 09:52:03;;;;;;;2.17;1.97;;;7.40;99.90;;;;;;4997597;28;20194;-76
2023/01/08 09:54:28;;;;;;;2.10;1.90;;;7.50;99.90;;;;;;4997238;28;20220;-76
2023/01/08 09:56:54;;;;;;;2.30;2.00;;;7.50;99.90;;;;;;5014567;28;20178;-76
2023/01/08 09:59:20;;;;;;;2.07;1.90;;;7.40;99.90;;;;;;5014886;28;20684;-76
2023/01/08 10:01:46;;;;;;;2.83;1.93;;;7.40;99.90;;;;;;4996615;28;20230;-76
2023/01/08 10:04:14;;;;;;;2.00;1.80;;;7.40;99.90;;;;;;5014618;28;20183;-76
2023/01/08 10:06:45;;;;;;;2.40;2.10;;;7.40;99.90;;;;;;4996936;28;20179;-76
2023/01/08 10:09:13;;;;;;;2.10;1.60;;;7.50;99.90;;;;;;4996797;28;20298;-76
2023/01/08 10:11:43;;;;;;;2.40;1.97;;;7.50;99.90;;;;;;5014399;28;20206;-76
2023/01/08 10:14:33;;;;;;;2.10;1.80;;;7.50;99.90;;;;;;5014146;28;20206;-76
2023/01/08 10:17:22;;;;;;;2.10;1.80;;;7.50;99.90;;;;;;4996757;28;20175;-76
2023/01/08 10:19:48;;;;;;;2.40;1.57;;;7.50;99.90;;;;;;4996714;28;20219;-76
2023/01/08 10:22:20;;;;;;;2.03;1.83;;;7.50;99.90;;;;;;4995908;28;20646;-76
2023/01/08 10:24:46;;;;;;;2.07;1.73;;;7.50;99.90;;;;;;4988070;28;20199;-76
2023/01/08 10:27:18;;;;;;;1.63;1.37;;;7.50;99.90;;;;;;4985487;28;20186;-76
2023/01/08 10:29:45;;;;;;;1.50;1.40;;;7.50;99.90;;;;;;4983439;28;20318;-77
2023/01/08 10:32:18;;;;;;;1.67;1.57;;;7.50;99.90;;;;;;4993028;28;20264;-78
2023/01/08 10:34:50;;;;;;;2.23;1.60;;;7.60;99.90;;;;;;4988462;28;20180;-76
2023/01/08 10:37:26;;;;;;;1.40;1.30;;;7.60;99.90;;;;;;4996718;28;20262;-76
2023/01/08 10:39:54;;;;;;;1.50;1.40;;;7.60;99.90;;;;;;4993019;28;20293;-76
2023/01/08 10:42:22;;;;;;;1.50;1.30;;;7.60;99.90;;;;;;4988284;28;20230;-76
2023/01/08 10:44:59;;;;;;;3.90;1.60;;;7.60;99.90;;;;;;4996190;28;20187;-76
2023/01/08 10:47:29;;;;;;;2.33;1.40;;;7.70;99.90;;;;;;4986982;28;20259;-76
2023/01/08 10:49:55;;;;;;;1.57;1.47;;;7.70;99.90;;;;;;4995976;28;20211;-76
2023/01/08 10:52:25;;;;;;;1.83;1.50;;;7.70;99.90;;;;;;5013782;28;20176;-76
2023/01/08 10:54:51;;;;;;;1.30;1.20;;;7.70;99.90;;;;;;4996111;28;20189;-76
2023/01/08 10:57:35;;;;;;;1.40;1.20;;;7.70;99.90;;;;;;4996012;28;20649;-77
2023/01/08 11:00:00;;;;;;;2.90;1.53;;;7.70;99.90;;;;;;4995196;28;20210;-77
2023/01/08 11:02:32;;;;;;;1.30;1.20;;;7.70;99.90;;;;;;4996307;28;20624;-76
2023/01/08 11:04:58;;;;;;;1.33;1.03;;;7.80;99.90;;;;;;5013749;28;20171;-78
2023/01/08 11:07:25;;;;;;;1.90;1.33;;;7.80;99.90;;;;;;4996110;28;20199;-77
2023/01/08 11:09:52;;;;;;;1.20;1.10;;;7.80;99.90;;;;;;4995505;28;20221;-79
2023/01/08 11:12:30;;;;;;;1.27;1.17;;;7.80;99.90;;;;;;4996258;28;20667;-77
2023/01/08 11:14:56;;;;;;;1.27;1.07;;;7.90;99.90;;;;;;4995914;28;20178;-77
2023/01/08 11:17:26;;;;;;;1.43;1.10;;;7.80;99.90;;;;;;5013729;28;20210;-77
2023/01/08 11:19:52;;;;;;;1.37;1.20;;;7.80;99.90;;;;;;5007383;28;20203;-77
2023/01/08 11:22:24;;;;;;;2.50;1.20;;;7.80;99.90;;;;;;5010940;28;20240;-77
2023/01/08 11:24:51;;;;;;;0.90;0.90;;;7.90;99.90;;;;;;5013173;28;20671;-77
2023/01/08 11:27:31;;;;;;;1.10;1.00;;;7.90;99.90;;;;;;5013064;28;20222;-77
2023/01/08 11:29:59;;;;;;;2.17;1.10;;;7.80;99.90;;;;;;4995134;28;20241;-77
2023/01/08 11:32:53;;;;;;;1.10;1.03;;;7.90;99.90;;;;;;4995374;28;20171;-78
2023/01/08 11:35:28;;;;;;;1.50;1.10;;;7.90;99.90;;;;;;5013240;28;20235;-78
2023/01/08 11:38:00;;;;;;;1.20;1.10;;;7.90;99.90;;;;;;5012803;28;20182;-77
2023/01/08 11:40:47;;;;;;;2.00;1.40;;;8.00;99.90;;;;;;4995082;28;20591;-77
2023/01/08 11:43:34;;;;;;;1.00;0.90;;;8.00;99.90;;;;;;4995070;28;20178;-76
2023/01/08 11:46:37;;;;;;;1.70;1.00;;;8.00;99.90;;;;;;4988298;28;20184;-78
2023/01/08 11:49:29;;;;;;;1.50;0.93;;;8.00;99.90;;;;;;5008241;28;20698;-75
2023/01/08 11:52:15;;;;;;;2.07;1.00;;;8.20;99.90;;;;;;5008581;28;20176;-74
2023/01/08 11:55:05;;;;;;;1.20;1.10;;;8.50;99.90;;;;;;5005289;28;20188;-74
2023/01/08 11:57:39;;;;;;;1.83;1.30;;;8.40;99.90;;;;;;4986776;28;20180;-75
2023/01/08 12:00:23;;;;;;;0.90;0.90;;;8.50;99.90;;;;;;5010864;28;20240;-74
2023/01/08 12:03:14;;;;;;;1.20;1.07;;;8.50;99.90;;;;;;4983311;28;20192;-76
2023/01/08 12:05:55;;;;;;;1.00;0.90;;;8.30;99.90;;;;;;4962889;28;20223;-74
2023/01/08 12:08:48;;;;;;;1.53;0.90;;;8.30;99.90;;;;;;4991414;28;20189;-77
2023/01/08 12:11:23;;;;;;;1.20;1.10;;;8.30;99.90;;;;;;4974502;28;20329;-76
2023/01/08 12:14:06;;;;;;;0.90;0.90;;;8.30;99.90;;;;;;4975792;28;20260;-76
2023/01/08 12:17:01;;;;;;;0.83;0.83;;;8.20;99.90;;;;;;4992865;28;20178;-76
2023/01/08 12:19:45;;;;;;;0.93;0.90;;;8.20;99.90;;;;;;4975636;28;20204;-76
2023/01/08 12:22:34;;;;;;;0.90;0.90;;;8.10;99.90;;;;;;4975765;28;20172;-76
2023/01/08 12:25:06;;;;;;;1.00;0.90;;;8.10;99.90;;;;;;4975790;28;20186;-76
2023/01/08 12:28:03;;;;;;;1.93;1.20;;;8.10;99.90;;;;;;4993069;28;20176;-76
2023/01/08 12:30:50;;;;;;;1.13;1.03;;;8.30;99.90;;;;;;4991726;28;20229;-76
2023/01/08 12:33:46;;;;;;;0.90;0.83;;;8.50;99.90;;;;;;4975299;28;20276;-76
2023/01/08 12:36:18;;;;;;;1.10;0.90;;;8.70;99.90;;;;;;4975566;28;20172;-77
2023/01/08 12:38:47;;;;;;;0.70;0.70;;;8.70;99.90;;;;;;4992978;28;20242;-76
2023/01/08 12:41:17;;;;;;;1.00;0.90;;;8.60;99.90;;;;;;4975340;28;20202;-76
2023/01/08 12:44:04;;;;;;;1.03;0.97;;;8.50;99.90;;;;;;4975575;28;20176;-76
2023/01/08 12:46:35;;;;;;;0.90;0.90;;;8.50;99.90;;;;;;4975123;28;20247;-75
2023/01/08 12:49:04;;;;;;;0.77;0.77;;;8.40;99.90;;;;;;4975224;28;20193;-76
2023/01/08 12:51:47;;;;;;;1.10;1.00;;;8.40;99.90;;;;;;4992357;28;20272;-76
2023/01/08 12:54:24;;;;;;;0.80;0.80;;;8.60;99.90;;;;;;4975159;28;20209;-76
2023/01/08 12:57:15;;;;;;;1.00;0.90;;;8.70;99.90;;;;;;4975084;28;20180;-76
2023/01/08 12:59:50;;;;;;;1.00;0.77;;;8.70;99.90;;;;;;4992426;28;20182;-76
2023/01/08 13:02:40;;;;;;;0.80;0.60;;;8.60;99.90;;;;;;5034143;22;20267;-82
2023/01/08 13:05:30;;;;;;;0.80;0.80;;;8.60;99.90;;;;;;5012543;28;20186;-82
2023/01/08 13:08:22;;;;;;;1.37;0.80;;;8.50;99.90;;;;;;5011663;28;20181;-82
2023/01/08 13:10:52;;;;;;;0.70;0.70;;;8.50;99.90;;;;;;4992858;28;20243;-82